Time;durP1;ratioP1;P1;durP2;ratioP2;P2;SDS_P1;SDS_P2;PMS_P1;PMS_P2;Temp;Humidity;BMP_temperature;BMP_pressure;BME280_temperature;BME280_humidity;BME280_pressure;Samples;Min_cycle;Max_cycle;Signal;HPM_P1;HPM_P2
2021/01/22 00:02:24;;;;;;;300.23;167.32;;;16.90;59.00;;;;;;5113448;28;20508;-60
2021/01/22 00:04:50;;;;;;;292.00;164.85;;;16.90;59.00;;;;;;5115132;28;20081;-60
2021/01/22 00:07:16;;;;;;;285.58;159.88;;;16.90;58.80;;;;;;5117714;28;20100;-60
2021/01/22 00:09:41;;;;;;;275.48;156.13;;;17.00;58.50;;;;;;5117486;28;20023;-60
2021/01/22 00:12:07;;;;;;;270.70;152.32;;;17.10;58.20;;;;;;5117211;28;20055;-61
2021/01/22 00:14:33;;;;;;;273.55;151.95;;;17.20;57.80;;;;;;5115074;28;20039;-60
2021/01/22 00:16:59;;;;;;;257.52;145.75;;;17.20;57.40;;;;;;5116812;28;20385;-55
2021/01/22 00:19:24;;;;;;;267.88;149.40;;;17.30;57.00;;;;;;5117816;28;20051;-57
2021/01/22 00:21:50;;;;;;;249.73;139.00;;;17.50;56.70;;;;;;5115986;28;20086;-58
2021/01/22 00:24:15;;;;;;;249.60;143.15;;;17.70;56.20;;;;;;5115358;28;20032;-59
2021/01/22 00:26:41;;;;;;;245.88;141.48;;;17.80;55.80;;;;;;5115295;28;20143;-58
2021/01/22 00:29:07;;;;;;;247.02;140.27;;;17.90;55.70;;;;;;5115359;28;20565;-58
2021/01/22 00:31:32;;;;;;;246.68;139.25;;;17.80;55.80;;;;;;5115226;28;20032;-58
2021/01/22 00:33:58;;;;;;;249.07;140.30;;;17.80;55.80;;;;;;5115029;28;20028;-58
2021/01/22 00:36:23;;;;;;;251.65;138.75;;;17.80;55.70;;;;;;5116560;28;20453;-57
2021/01/22 00:38:49;;;;;;;245.63;135.75;;;17.80;55.60;;;;;;5116990;28;20084;-57
2021/01/22 00:41:16;;;;;;;233.93;136.50;;;17.70;55.60;;;;;;5117155;28;20034;-56
2021/01/22 00:43:42;;;;;;;239.32;130.75;;;17.60;55.50;;;;;;5117330;28;20032;-57
2021/01/22 00:46:07;;;;;;;232.23;131.27;;;17.60;55.50;;;;;;5117344;28;20026;-57
2021/01/22 00:48:33;;;;;;;225.15;130.88;;;17.70;55.50;;;;;;5117233;28;20453;-57
2021/01/22 00:50:58;;;;;;;217.85;126.78;;;17.60;55.40;;;;;;5117180;28;20020;-57
2021/01/22 00:53:24;;;;;;;222.32;129.27;;;17.60;55.50;;;;;;5117082;28;20027;-57
2021/01/22 00:55:50;;;;;;;214.10;121.25;;;17.60;55.50;;;;;;5117306;28;20058;-57
2021/01/22 00:58:15;;;;;;;215.48;123.47;;;17.60;55.50;;;;;;5117121;28;20055;-57
2021/01/22 01:00:41;;;;;;;212.32;120.35;;;17.50;55.40;;;;;;5117092;28;20373;-57
2021/01/22 01:03:07;;;;;;;221.50;120.75;;;17.50;55.40;;;;;;5116869;28;20443;-59
2021/01/22 01:05:33;;;;;;;203.45;119.70;;;17.50;55.40;;;;;;5116967;28;20051;-57
2021/01/22 01:07:59;;;;;;;215.02;118.50;;;17.50;56.00;;;;;;5116943;28;20102;-57
2021/01/22 01:10:24;;;;;;;203.55;117.43;;;17.50;55.40;;;;;;5116888;28;20102;-57
2021/01/22 01:12:50;;;;;;;205.20;116.30;;;17.50;55.40;;;;;;5116819;28;20100;-57
2021/01/22 01:15:15;;;;;;;197.10;113.90;;;17.50;55.40;;;;;;5116067;28;20035;-57
2021/01/22 01:17:41;;;;;;;202.10;115.00;;;17.40;55.40;;;;;;5116485;28;20099;-57
2021/01/22 01:20:08;;;;;;;193.30;114.43;;;17.50;55.20;;;;;;5116667;28;20055;-57
2021/01/22 01:22:34;;;;;;;200.80;112.88;;;17.60;55.10;;;;;;5116597;28;20055;-57
2021/01/22 01:25:00;;;;;;;187.38;111.82;;;17.60;54.80;;;;;;5116539;28;20039;-57
2021/01/22 01:27:26;;;;;;;194.27;109.85;;;17.60;54.80;;;;;;5116601;28;20023;-57
2021/01/22 01:29:51;;;;;;;187.07;105.00;;;17.60;54.70;;;;;;5116303;28;20024;-57
2021/01/22 01:32:17;;;;;;;191.32;107.43;;;17.50;55.10;;;;;;5116064;28;20031;-57
2021/01/22 01:34:43;;;;;;;188.35;109.07;;;17.50;55.20;;;;;;5116205;28;20028;-57
2021/01/22 01:37:08;;;;;;;180.85;103.13;;;17.40;55.20;;;;;;5116257;28;20058;-57
2021/01/22 01:39:34;;;;;;;178.65;104.82;;;17.30;55.80;;;;;;5116274;28;20068;-57
2021/01/22 01:41:59;;;;;;;183.05;105.32;;;17.30;55.50;;;;;;5116306;28;20023;-57
2021/01/22 01:44:25;;;;;;;173.18;99.68;;;17.20;55.40;;;;;;5115962;28;20107;-57
2021/01/22 01:46:50;;;;;;;171.68;101.57;;;17.20;56.10;;;;;;5116113;28;20459;-56
2021/01/22 01:49:16;;;;;;;168.65;99.32;;;17.10;55.50;;;;;;5116287;28;20073;-57
2021/01/22 01:51:43;;;;;;;170.80;98.93;;;17.10;55.60;;;;;;5116159;28;20036;-56
2021/01/22 01:54:09;;;;;;;167.75;100.38;;;17.10;55.50;;;;;;5115864;28;20397;-56
2021/01/22 01:56:35;;;;;;;166.25;96.68;;;17.00;55.60;;;;;;5115927;28;20023;-56
2021/01/22 01:59:01;;;;;;;169.68;95.15;;;17.00;55.70;;;;;;5115755;28;20019;-56
2021/01/22 02:01:27;;;;;;;158.18;92.82;;;17.00;55.70;;;;;;5115803;28;20077;-56
2021/01/22 02:03:54;;;;;;;158.75;92.55;;;17.00;55.70;;;;;;5115658;28;20071;-56
2021/01/22 02:06:19;;;;;;;164.60;95.97;;;17.00;55.80;;;;;;5116087;28;20031;-57
2021/01/22 02:08:45;;;;;;;158.88;90.30;;;17.00;56.30;;;;;;5115592;28;20024;-56
2021/01/22 02:11:13;;;;;;;164.45;94.72;;;16.90;55.80;;;;;;5115423;28;20027;-56
2021/01/22 02:13:40;;;;;;;154.18;89.45;;;16.90;55.80;;;;;;5115704;28;20050;-57
2021/01/22 02:16:06;;;;;;;158.38;90.15;;;17.00;55.80;;;;;;5115268;28;20042;-57
2021/01/22 02:18:32;;;;;;;157.60;89.57;;;17.00;55.70;;;;;;5115563;28;20028;-56
2021/01/22 02:21:17;;;;;;;146.35;87.60;;;17.00;55.60;;;;;;5115530;28;20019;-55
2021/01/22 02:23:45;;;;;;;142.15;82.22;;;17.20;55.40;;;;;;5115438;28;20032;-54
2021/01/22 02:26:11;;;;;;;146.85;84.65;;;17.40;54.90;;;;;;5114596;28;20045;-56
2021/01/22 02:28:37;;;;;;;148.63;83.22;;;17.50;54.50;;;;;;5115598;28;20524;-56
2021/01/22 02:31:03;;;;;;;141.63;82.75;;;17.70;54.30;;;;;;5115066;28;20028;-57
2021/01/22 02:33:30;;;;;;;148.30;84.68;;;17.80;54.30;;;;;;5115225;28;20465;-56
2021/01/22 02:35:56;;;;;;;139.27;80.13;;;17.80;54.10;;;;;;5115384;28;20024;-56
2021/01/22 02:38:24;;;;;;;129.88;78.40;;;17.80;53.90;;;;;;5115255;28;20023;-56
2021/01/22 02:40:56;;;;;;;137.75;82.55;;;17.90;54.00;;;;;;5115015;28;20019;-56
2021/01/22 02:43:22;;;;;;;131.75;77.65;;;17.90;53.60;;;;;;5114923;28;20427;-56
2021/01/22 02:45:51;;;;;;;133.15;78.38;;;17.90;53.50;;;;;;5114958;28;20031;-56
2021/01/22 02:48:17;;;;;;;128.88;76.78;;;17.80;53.60;;;;;;5115132;28;20111;-56
2021/01/22 02:50:43;;;;;;;121.35;75.10;;;17.90;53.60;;;;;;5114952;28;20028;-56
2021/01/22 02:53:08;;;;;;;123.97;73.38;;;17.80;53.60;;;;;;5114672;28;20034;-55
2021/01/22 02:55:36;;;;;;;125.80;74.47;;;17.80;53.70;;;;;;5114785;28;20059;-57
2021/01/22 02:58:25;;;;;;;128.38;72.57;;;17.80;53.80;;;;;;5115004;28;20049;-56
2021/01/22 03:00:59;;;;;;;117.30;71.07;;;17.70;53.80;;;;;;5114818;28;20020;-56
2021/01/22 03:03:45;;;;;;;126.53;73.60;;;17.70;53.90;;;;;;5114630;28;20027;-57
2021/01/22 03:06:20;;;;;;;123.05;69.05;;;17.70;53.90;;;;;;5115188;28;20027;-55
2021/01/22 03:08:49;;;;;;;113.15;68.43;;;17.60;53.90;;;;;;5113814;28;20438;-55
2021/01/22 03:11:16;;;;;;;117.28;68.22;;;17.70;54.00;;;;;;5114643;28;20435;-56
2021/01/22 03:13:44;;;;;;;115.50;68.85;;;17.60;53.90;;;;;;5114679;28;20047;-56
2021/01/22 03:16:09;;;;;;;116.70;69.35;;;17.60;54.00;;;;;;5114484;28;20023;-57
2021/01/22 03:18:35;;;;;;;115.53;66.80;;;17.60;54.00;;;;;;5114473;28;20020;-56
2021/01/22 03:21:08;;;;;;;111.10;67.93;;;17.50;54.00;;;;;;5114386;28;20019;-57
2021/01/22 03:23:34;;;;;;;112.93;66.00;;;17.60;54.00;;;;;;5113493;28;20423;-56
2021/01/22 03:26:00;;;;;;;105.80;61.17;;;17.50;54.20;;;;;;5114700;28;20024;-56
2021/01/22 03:28:25;;;;;;;107.72;62.80;;;17.60;54.10;;;;;;5114004;28;20028;-58
2021/01/22 03:30:51;;;;;;;108.15;63.58;;;17.60;53.90;;;;;;5114255;28;20444;-56
2021/01/22 03:33:16;;;;;;;103.43;61.75;;;17.70;53.70;;;;;;5113942;28;20028;-56
2021/01/22 03:35:42;;;;;;;102.07;60.35;;;17.70;53.60;;;;;;5114128;28;20047;-56
2021/01/22 03:38:07;;;;;;;100.38;61.17;;;17.70;53.70;;;;;;5114163;28;20405;-56
2021/01/22 03:40:33;;;;;;;104.40;63.10;;;17.70;54.00;;;;;;5114147;28;20067;-57
2021/01/22 03:42:59;;;;;;;101.35;60.55;;;17.60;54.00;;;;;;5114076;28;20031;-56
2021/01/22 03:45:24;;;;;;;98.50;57.67;;;17.50;54.00;;;;;;5114079;28;20444;-56
2021/01/22 03:47:50;;;;;;;97.82;58.53;;;17.50;54.10;;;;;;5114117;28;20038;-56
2021/01/22 03:50:15;;;;;;;100.18;59.67;;;17.40;54.20;;;;;;5114406;28;20020;-56
2021/01/22 03:52:41;;;;;;;92.03;57.45;;;17.40;54.40;;;;;;5113903;28;20028;-57
2021/01/22 03:55:08;;;;;;;90.63;56.80;;;17.30;54.50;;;;;;5114034;28;20028;-56
2021/01/22 03:57:33;;;;;;;98.88;58.03;;;17.30;54.60;;;;;;5114058;28;20055;-56
2021/01/22 03:59:59;;;;;;;93.90;55.78;;;17.30;54.70;;;;;;5113656;28;20530;-56
2021/01/22 04:02:25;;;;;;;96.93;56.63;;;17.20;54.60;;;;;;5113681;28;20055;-57
2021/01/22 04:04:51;;;;;;;88.40;54.60;;;17.20;54.70;;;;;;5113874;28;20088;-56
2021/01/22 04:07:17;;;;;;;93.07;55.70;;;17.20;54.70;;;;;;5114197;28;20030;-55
2021/01/22 04:09:42;;;;;;;92.00;55.35;;;17.20;54.80;;;;;;5113920;28;20035;-56
2021/01/22 04:12:08;;;;;;;92.10;55.88;;;17.10;54.80;;;;;;5113989;28;20062;-56
2021/01/22 04:14:33;;;;;;;90.25;54.45;;;17.10;54.90;;;;;;5113826;28;20079;-57
2021/01/22 04:16:59;;;;;;;84.97;53.40;;;17.00;55.00;;;;;;5113792;28;20051;-56
2021/01/22 04:19:25;;;;;;;88.88;53.20;;;17.10;55.10;;;;;;5114014;28;20488;-56
2021/01/22 04:21:51;;;;;;;87.95;53.47;;;17.00;55.10;;;;;;5113823;28;20081;-56
2021/01/22 04:24:17;;;;;;;87.10;53.35;;;17.00;55.20;;;;;;5114051;28;20035;-55
2021/01/22 04:26:44;;;;;;;89.40;53.00;;;16.90;55.20;;;;;;5113855;28;20032;-56
2021/01/22 04:29:11;;;;;;;89.50;51.88;;;17.00;55.30;;;;;;5113432;28;20388;-55
2021/01/22 04:31:36;;;;;;;85.55;50.25;;;16.90;55.20;;;;;;5113992;28;20034;-56
2021/01/22 04:34:02;;;;;;;83.75;51.53;;;17.10;55.20;;;;;;5113780;28;20473;-57
2021/01/22 04:36:28;;;;;;;84.88;49.80;;;17.20;54.80;;;;;;5113780;28;20488;-56
2021/01/22 04:38:53;;;;;;;84.55;49.63;;;17.40;54.40;;;;;;5113529;28;20023;-56
2021/01/22 04:41:19;;;;;;;85.35;50.97;;;17.50;54.10;;;;;;5113544;28;20072;-57
2021/01/22 04:43:45;;;;;;;80.00;48.65;;;17.60;53.90;;;;;;5113564;28;20455;-56
2021/01/22 04:46:11;;;;;;;81.85;49.40;;;17.70;53.70;;;;;;5113801;28;20039;-56
2021/01/22 04:48:40;;;;;;;78.72;48.55;;;17.70;53.70;;;;;;5113625;28;20023;-56
2021/01/22 04:51:06;;;;;;;78.45;46.80;;;17.80;53.60;;;;;;5116655;28;20020;-57
2021/01/22 04:53:35;;;;;;;83.10;46.47;;;17.90;53.90;;;;;;5117037;28;20136;-56
2021/01/22 04:56:01;;;;;;;81.68;46.88;;;17.90;53.20;;;;;;5117108;28;20113;-57
2021/01/22 04:58:28;;;;;;;76.97;44.92;;;17.90;53.10;;;;;;5117498;28;20032;-56
2021/01/22 05:00:55;;;;;;;73.25;45.40;;;17.90;53.00;;;;;;5116812;28;20484;-56
2021/01/22 05:03:26;;;;;;;78.75;46.53;;;17.90;53.10;;;;;;5117186;28;20038;-57
2021/01/22 05:05:56;;;;;;;67.20;42.67;;;17.90;53.10;;;;;;5117120;28;20110;-57
2021/01/22 05:08:22;;;;;;;73.47;44.55;;;18.00;53.00;;;;;;5117244;28;20081;-58
2021/01/22 05:10:47;;;;;;;70.05;42.47;;;18.00;52.90;;;;;;5116923;28;20031;-57
2021/01/22 05:13:13;;;;;;;69.45;42.53;;;18.10;52.70;;;;;;5116934;28;20051;-57
2021/01/22 05:15:39;;;;;;;72.05;44.70;;;18.10;52.60;;;;;;5116524;28;20385;-56
2021/01/22 05:18:06;;;;;;;66.15;40.85;;;18.20;52.60;;;;;;5116660;28;20027;-57
2021/01/22 05:20:36;;;;;;;68.45;41.17;;;18.20;52.40;;;;;;5116683;28;20484;-56
2021/01/22 05:23:05;;;;;;;70.40;42.10;;;18.30;52.20;;;;;;5116388;28;20107;-57
2021/01/22 05:25:31;;;;;;;68.10;40.50;;;18.40;52.10;;;;;;5116618;28;20430;-56
2021/01/22 05:27:58;;;;;;;65.82;40.50;;;18.50;51.90;;;;;;5116392;28;20031;-57
2021/01/22 05:30:26;;;;;;;63.50;39.67;;;18.50;51.80;;;;;;5116505;28;20023;-57
2021/01/22 05:32:52;;;;;;;66.25;39.80;;;18.50;51.60;;;;;;5116296;28;20032;-56
2021/01/22 05:35:28;;;;;;;64.43;39.30;;;18.60;51.50;;;;;;5116207;28;20024;-57
2021/01/22 05:37:54;;;;;;;65.65;39.90;;;18.60;51.50;;;;;;5116275;28;20046;-57
2021/01/22 05:40:20;;;;;;;66.00;39.45;;;18.70;51.50;;;;;;5116349;28;20469;-56
2021/01/22 05:42:49;;;;;;;59.58;38.03;;;18.60;51.60;;;;;;5116442;28;20080;-57
2021/01/22 05:45:16;;;;;;;56.63;36.72;;;18.70;51.60;;;;;;5116328;28;20027;-56
2021/01/22 05:47:43;;;;;;;59.47;37.03;;;18.80;51.50;;;;;;5116236;28;20066;-56
2021/01/22 05:50:09;;;;;;;62.75;36.53;;;18.80;51.40;;;;;;5116082;28;20035;-57
2021/01/22 05:52:35;;;;;;;57.20;36.17;;;18.90;51.30;;;;;;5116021;28;20032;-57
2021/01/22 05:55:21;;;;;;;55.22;33.72;;;19.00;51.10;;;;;;5116275;28;20114;-56
2021/01/22 05:57:47;;;;;;;52.45;33.53;;;19.10;50.70;;;;;;5115859;28;20020;-57
2021/01/22 06:00:14;;;;;;;55.17;34.33;;;19.10;50.50;;;;;;5115534;28;20518;-57
2021/01/22 06:02:40;;;;;;;56.22;33.45;;;19.20;50.40;;;;;;5114774;28;20061;-57
2021/01/22 06:05:14;;;;;;;52.50;33.75;;;19.30;50.30;;;;;;5116209;28;20035;-57
2021/01/22 06:07:42;;;;;;;51.92;32.90;;;19.30;50.30;;;;;;5115851;28;20027;-57
2021/01/22 06:10:24;;;;;;;55.28;32.58;;;19.30;50.20;;;;;;5115578;27;20059;-57
2021/01/22 06:12:54;;;;;;;52.38;33.80;;;19.30;50.20;;;;;;5116202;28;20370;-57
2021/01/22 06:15:21;;;;;;;49.00;32.20;;;19.30;50.30;;;;;;5115823;28;20444;-57
2021/01/22 06:17:52;;;;;;;51.15;31.05;;;19.20;50.40;;;;;;5115371;28;20020;-57
2021/01/22 06:20:22;;;;;;;47.78;30.48;;;19.10;50.50;;;;;;5115589;28;20026;-56
2021/01/22 06:23:13;;;;;;;51.95;32.53;;;19.00;50.70;;;;;;5115837;28;20032;-56
2021/01/22 06:25:42;;;;;;;45.03;30.13;;;19.10;50.80;;;;;;5115078;28;20524;-57
2021/01/22 06:28:12;;;;;;;50.73;30.97;;;19.00;50.80;;;;;;5115339;28;20076;-57
2021/01/22 06:30:40;;;;;;;49.40;28.88;;;19.00;51.00;;;;;;5115375;28;20019;-57
2021/01/22 06:33:07;;;;;;;46.70;30.83;;;18.90;51.10;;;;;;5115144;28;20118;-57
2021/01/22 06:35:34;;;;;;;46.88;27.92;;;18.80;51.20;;;;;;5115390;28;20084;-57
2021/01/22 06:38:03;;;;;;;48.88;30.42;;;18.80;51.30;;;;;;5115136;28;20051;-57
2021/01/22 06:40:29;;;;;;;42.25;28.85;;;18.70;51.40;;;;;;5115157;28;20519;-57
2021/01/22 06:42:55;;;;;;;52.15;30.33;;;18.70;51.50;;;;;;5114823;28;20036;-57
2021/01/22 06:45:23;;;;;;;43.60;26.67;;;18.70;51.60;;;;;;5115016;28;20035;-57
2021/01/22 06:48:06;;;;;;;42.58;27.85;;;18.60;51.90;;;;;;5114918;28;20043;-57
2021/01/22 06:50:33;;;;;;;48.35;29.30;;;18.60;51.80;;;;;;5114823;28;20027;-57
2021/01/22 06:53:16;;;;;;;42.03;27.73;;;18.70;51.90;;;;;;5114835;28;20031;-57
2021/01/22 06:55:51;;;;;;;41.75;25.85;;;18.60;51.80;;;;;;5114589;28;20055;-57
2021/01/22 06:58:26;;;;;;;36.58;25.27;;;18.70;51.80;;;;;;5114709;28;20028;-57
2021/01/22 07:00:57;;;;;;;41.63;26.35;;;18.60;51.80;;;;;;5114699;28;20028;-57
2021/01/22 07:03:37;;;;;;;;;;;18.50;51.90;;;;;;5115465;28;20063;-57
2021/01/22 07:06:03;;;;;;;41.25;25.10;;;18.40;52.00;;;;;;5114615;28;19912;-57
2021/01/22 07:08:54;;;;;;;38.65;26.05;;;18.40;52.10;;;;;;5114754;28;20036;-57
2021/01/22 07:11:21;;;;;;;39.45;25.52;;;18.30;52.20;;;;;;5114116;28;20043;-57
2021/01/22 07:13:47;;;;;;;38.65;24.45;;;18.30;52.40;;;;;;5114342;28;20024;-57
2021/01/22 07:16:18;;;;;;;45.38;26.75;;;18.20;52.50;;;;;;5114609;28;20034;-57
2021/01/22 07:18:56;;;;;;;42.20;25.05;;;18.20;52.60;;;;;;5114339;28;20107;-57
2021/01/22 07:21:40;;;;;;;40.13;25.38;;;18.10;52.70;;;;;;5114582;28;20481;-57
2021/01/22 07:24:13;;;;;;;38.30;24.70;;;18.10;52.70;;;;;;5115053;28;20032;-57
2021/01/22 07:26:50;;;;;;;39.42;24.77;;;18.20;52.70;;;;;;5114863;28;20027;-55
2021/01/22 07:29:24;;;;;;;40.83;24.80;;;18.20;52.70;;;;;;5114118;28;20024;-56
2021/01/22 07:31:56;;;;;;;38.80;25.67;;;18.30;52.50;;;;;;5114273;28;20453;-57
2021/01/22 07:34:41;;;;;;;35.28;23.52;;;18.30;52.30;;;;;;5114781;28;20110;-57
2021/01/22 07:37:18;;;;;;;37.13;23.50;;;18.40;52.20;;;;;;5106398;28;20104;-58
2021/01/22 07:39:45;;;;;;;44.13;26.48;;;18.50;52.00;;;;;;5114182;28;20019;-57
2021/01/22 07:42:13;;;;;;;46.78;27.73;;;18.60;52.30;;;;;;5114121;28;20466;-58
2021/01/22 07:44:40;;;;;;;46.10;31.05;;;18.80;52.30;;;;;;5114093;28;20057;-59
2021/01/22 07:47:07;;;;;;;46.40;30.98;;;18.90;51.50;;;;;;5114025;28;20028;-59
2021/01/22 07:49:33;;;;;;;51.53;31.65;;;18.80;51.50;;;;;;5114228;28;20115;-58
2021/01/22 07:52:02;;;;;;;52.22;30.70;;;18.70;51.80;;;;;;5114036;28;20020;-55
2021/01/22 07:54:39;;;;;;;48.50;31.07;;;18.80;52.00;;;;;;5114006;28;20036;-60
2021/01/22 07:57:15;;;;;;;54.65;32.17;;;18.80;50.60;;;;;;5113881;28;20260;-58
2021/01/22 07:59:43;;;;;;;87.10;52.03;;;18.90;51.50;;;;;;5114459;28;20095;-58
2021/01/22 08:02:19;;;;;;;114.95;63.45;;;18.90;50.70;;;;;;5112526;28;20346;-58
2021/01/22 08:05:01;;;;;;;93.80;61.15;;;18.70;50.10;;;;;;5113659;28;20027;-58
2021/01/22 08:07:40;;;;;;;103.75;66.25;;;18.60;48.40;;;;;;5110218;28;20027;-59
2021/01/22 08:10:11;;;;;;;110.80;66.15;;;18.30;46.60;;;;;;5112894;28;20027;-60
2021/01/22 08:12:38;;;;;;;82.68;56.58;;;18.10;45.40;;;;;;5113408;28;20477;-65
2021/01/22 08:15:20;;;;;;;85.03;55.58;;;16.70;45.00;;;;;;5113962;28;20059;-61
2021/01/22 08:17:47;;;;;;;83.38;57.00;;;17.00;46.60;;;;;;5113455;28;20024;-60
2021/01/22 08:20:13;;;;;;;89.78;61.42;;;16.80;47.80;;;;;;5113498;28;20690;-60
2021/01/22 08:22:39;;;;;;;112.25;71.15;;;16.70;48.10;;;;;;5113747;28;20088;-60
2021/01/22 08:25:06;;;;;;;119.15;74.60;;;16.50;48.00;;;;;;5115804;28;20031;-60
2021/01/22 08:27:31;;;;;;;207.13;113.43;;;16.40;47.90;;;;;;5117531;28;20031;-58
2021/01/22 08:29:58;;;;;;;219.82;118.38;;;16.70;46.10;;;;;;5117510;28;20034;-57
2021/01/22 08:32:24;;;;;;;219.20;116.85;;;17.10;45.50;;;;;;5117282;28;20038;-59
2021/01/22 08:34:50;;;;;;;189.60;105.43;;;17.50;45.50;;;;;;5116306;28;20122;-61
2021/01/22 08:37:16;;;;;;;181.93;99.80;;;17.70;45.40;;;;;;5116466;28;20023;-60
2021/01/22 08:40:01;;;;;;;163.43;92.65;;;18.00;45.40;;;;;;5116430;28;20036;-61
2021/01/22 08:42:27;;;;;;;161.48;85.00;;;18.10;45.50;;;;;;5115064;28;20469;-61
2021/01/22 08:45:01;;;;;;;147.20;83.50;;;18.20;45.60;;;;;;5114920;28;20035;-61
2021/01/22 08:47:29;;;;;;;143.75;79.03;;;18.30;45.60;;;;;;5115608;28;20035;-61
2021/01/22 08:50:04;;;;;;;128.27;72.65;;;18.40;45.70;;;;;;5116073;28;20373;-61
2021/01/22 08:52:30;;;;;;;125.95;70.72;;;18.50;45.80;;;;;;5116074;28;20028;-61
2021/01/22 08:54:58;;;;;;;118.50;68.00;;;18.60;45.90;;;;;;5116455;28;20020;-60
2021/01/22 08:57:28;;;;;;;113.85;67.18;;;18.70;45.90;;;;;;5117302;28;20032;-60
2021/01/22 08:59:56;;;;;;;101.10;63.03;;;18.80;46.00;;;;;;5117389;28;20028;-60
2021/01/22 09:02:41;;;;;;;108.95;61.10;;;18.80;46.20;;;;;;5117284;28;20359;-60
2021/01/22 09:05:12;;;;;;;105.72;60.45;;;18.80;46.70;;;;;;5116981;28;20102;-59
2021/01/22 09:07:39;;;;;;;102.28;56.80;;;18.90;47.20;;;;;;5117044;28;20020;-60
2021/01/22 09:10:06;;;;;;;90.05;57.85;;;19.00;46.60;;;;;;5117154;28;20031;-60
2021/01/22 09:12:33;;;;;;;101.25;56.85;;;19.10;46.40;;;;;;5116623;28;20082;-60
2021/01/22 09:15:01;;;;;;;99.35;57.83;;;19.20;46.20;;;;;;5116811;28;20024;-60
2021/01/22 09:17:36;;;;;;;93.20;57.15;;;19.30;46.10;;;;;;5116650;28;20027;-59
2021/01/22 09:20:20;;;;;;;104.32;57.17;;;19.30;46.00;;;;;;5116697;28;20028;-60
2021/01/22 09:22:52;;;;;;;85.15;52.90;;;19.40;46.10;;;;;;5117014;28;20095;-59
2021/01/22 09:25:23;;;;;;;91.40;52.53;;;19.30;46.30;;;;;;5116785;28;20036;-58
2021/01/22 09:27:51;;;;;;;89.47;54.53;;;19.30;46.40;;;;;;5116420;28;20032;-59
2021/01/22 09:30:24;;;;;;;89.38;51.80;;;19.20;46.50;;;;;;5116627;28;20100;-59
2021/01/22 09:32:54;;;;;;;85.18;48.55;;;19.20;46.70;;;;;;5116126;28;20061;-60
2021/01/22 09:35:21;;;;;;;83.38;49.03;;;19.20;46.90;;;;;;5116266;28;20110;-60
2021/01/22 09:37:48;;;;;;;85.55;50.60;;;19.10;47.00;;;;;;5116376;28;20031;-60
2021/01/22 09:40:14;;;;;;;80.13;49.05;;;19.00;47.30;;;;;;5116027;28;20100;-60
2021/01/22 09:42:40;;;;;;;82.82;48.90;;;19.00;47.40;;;;;;5115971;28;20028;-59
2021/01/22 09:45:08;;;;;;;77.63;45.83;;;18.90;47.50;;;;;;5116211;28;20088;-61
2021/01/22 09:47:34;;;;;;;78.45;48.45;;;18.90;47.70;;;;;;5116417;28;20035;-60
2021/01/22 09:50:00;;;;;;;77.28;46.90;;;18.80;47.80;;;;;;5116184;28;20404;-60
2021/01/22 09:52:26;;;;;;;81.13;48.55;;;18.80;48.00;;;;;;5116295;28;20020;-60
2021/01/22 09:54:54;;;;;;;78.18;47.40;;;18.70;48.10;;;;;;5116063;28;20028;-60
2021/01/22 09:57:20;;;;;;;74.13;44.42;;;18.70;48.30;;;;;;5116566;28;20028;-60
2021/01/22 09:59:46;;;;;;;74.25;44.17;;;18.70;48.30;;;;;;5115680;28;20080;-59
2021/01/22 10:02:11;;;;;;;73.15;44.88;;;18.70;48.40;;;;;;5116354;28;20109;-60
2021/01/22 10:04:38;;;;;;;73.00;44.20;;;18.60;48.60;;;;;;5115816;28;20366;-59
2021/01/22 10:07:05;;;;;;;67.10;43.97;;;18.60;48.90;;;;;;5116338;28;20031;-60
2021/01/22 10:09:31;;;;;;;71.50;43.47;;;18.50;48.90;;;;;;5115872;28;20103;-59
2021/01/22 10:11:57;;;;;;;70.75;42.38;;;18.50;49.00;;;;;;5115760;28;20130;-59
2021/01/22 10:14:22;;;;;;;71.20;42.58;;;18.60;49.00;;;;;;5115643;28;20558;-61
2021/01/22 10:16:48;;;;;;;69.57;41.53;;;18.60;48.90;;;;;;5115608;28;20019;-61
2021/01/22 10:19:14;;;;;;;68.30;42.33;;;18.60;48.90;;;;;;5115840;28;20480;-60
2021/01/22 10:21:39;;;;;;;66.18;42.55;;;18.60;48.90;;;;;;5115396;28;20193;-60
2021/01/22 10:24:05;;;;;;;71.25;40.97;;;18.60;49.00;;;;;;5115410;28;20028;-60
2021/01/22 10:26:31;;;;;;;65.13;39.90;;;18.50;49.00;;;;;;5115361;28;20027;-60
2021/01/22 10:28:57;;;;;;;73.88;40.33;;;18.40;49.10;;;;;;5115059;28;20019;-60
2021/01/22 10:31:23;;;;;;;69.57;41.13;;;18.30;49.30;;;;;;5115438;28;20030;-61
2021/01/22 10:33:48;;;;;;;59.85;39.65;;;18.30;49.60;;;;;;5115295;28;20062;-60
2021/01/22 10:36:15;;;;;;;69.25;42.03;;;18.20;49.60;;;;;;5115270;28;20023;-60
2021/01/22 10:38:40;;;;;;;63.83;39.75;;;18.20;49.70;;;;;;5115272;28;20046;-60
2021/01/22 10:41:06;;;;;;;69.40;40.25;;;18.20;49.80;;;;;;5115125;28;20382;-60
2021/01/22 10:43:32;;;;;;;63.65;39.50;;;18.10;49.90;;;;;;5114743;28;20024;-60
2021/01/22 10:45:59;;;;;;;57.70;38.38;;;18.00;50.00;;;;;;5114998;28;20034;-60
2021/01/22 10:48:24;;;;;;;64.18;38.80;;;18.00;50.20;;;;;;5114458;28;20106;-60
2021/01/22 10:50:50;;;;;;;65.38;37.13;;;18.00;50.10;;;;;;5115189;28;20104;-60
2021/01/22 10:53:17;;;;;;;64.85;40.20;;;18.00;50.10;;;;;;5114958;28;20156;-60
2021/01/22 10:55:43;;;;;;;64.95;38.25;;;18.10;50.20;;;;;;5114877;28;20039;-61
2021/01/22 10:58:09;;;;;;;69.85;39.22;;;18.10;50.00;;;;;;5114920;28;20030;-60
2021/01/22 11:00:35;;;;;;;62.15;37.28;;;18.20;49.90;;;;;;5114593;28;20032;-59
2021/01/22 11:03:02;;;;;;;63.75;36.88;;;18.30;49.70;;;;;;5114362;28;20027;-61
2021/01/22 11:05:28;;;;;;;58.63;35.35;;;18.40;49.50;;;;;;5114679;28;20028;-59
2021/01/22 11:07:53;;;;;;;63.95;36.60;;;18.50;49.40;;;;;;5114571;28;20038;-60
2021/01/22 11:10:19;;;;;;;62.45;35.83;;;18.50;49.80;;;;;;5114628;28;20031;-60
2021/01/22 11:12:48;;;;;;;61.10;38.50;;;18.60;49.00;;;;;;5114751;28;20511;-60
2021/01/22 11:15:14;;;;;;;52.95;34.47;;;18.60;49.00;;;;;;5114333;28;20109;-60
2021/01/22 11:17:40;;;;;;;64.45;35.50;;;18.70;48.90;;;;;;5114690;28;20032;-60
2021/01/22 11:20:07;;;;;;;55.40;34.97;;;18.70;49.00;;;;;;5114415;28;20031;-60
2021/01/22 11:22:34;;;;;;;54.60;33.38;;;18.60;49.10;;;;;;5114470;28;20165;-60
2021/01/22 11:24:59;;;;;;;54.28;33.13;;;18.70;49.30;;;;;;5114194;28;20426;-60
2021/01/22 11:27:25;;;;;;;56.30;33.55;;;18.70;49.20;;;;;;5114250;28;20062;-60
2021/01/22 11:29:51;;;;;;;53.33;31.58;;;18.70;49.30;;;;;;5114293;28;20461;-60
2021/01/22 11:32:18;;;;;;;57.28;36.10;;;18.70;49.30;;;;;;5114514;28;20034;-59
2021/01/22 11:34:44;;;;;;;54.63;33.22;;;18.70;49.30;;;;;;5114199;28;20537;-59
2021/01/22 11:37:11;;;;;;;56.05;33.33;;;18.70;49.00;;;;;;5114258;28;20027;-60
2021/01/22 11:39:37;;;;;;;52.83;32.67;;;18.70;49.00;;;;;;5114013;28;20465;-60
2021/01/22 11:42:08;;;;;;;48.20;32.25;;;18.70;49.00;;;;;;5114174;28;20091;-60
2021/01/22 11:44:33;;;;;;;;;;;18.60;49.00;;;;;;5114550;28;20044;-60
2021/01/22 11:46:59;;;;;;;49.75;30.98;;;18.60;49.30;;;;;;5114014;28;20284;-60
2021/01/22 11:49:25;;;;;;;44.45;31.48;;;18.50;49.30;;;;;;5114017;28;20020;-60
2021/01/22 11:51:51;;;;;;;49.78;31.52;;;18.50;49.50;;;;;;5113920;28;20031;-60
2021/01/22 11:54:17;;;;;;;54.20;31.40;;;18.40;49.50;;;;;;5114105;28;20121;-60
2021/01/22 11:56:46;;;;;;;50.95;31.92;;;18.50;49.60;;;;;;5113874;28;20400;-60
2021/01/22 11:59:11;;;;;;;55.05;31.83;;;18.40;49.60;;;;;;5114530;28;20388;-60
2021/01/22 12:01:37;;;;;;;46.83;30.25;;;18.40;49.60;;;;;;5118252;28;20054;-60
2021/01/22 12:04:02;;;;;;;49.35;30.48;;;18.40;49.70;;;;;;5117878;28;20112;-60
2021/01/22 12:06:28;;;;;;;58.28;34.30;;;18.30;50.40;;;;;;5117957;28;20026;-62
2021/01/22 12:08:54;;;;;;;62.83;34.35;;;18.40;52.00;;;;;;5118081;28;20026;-63
2021/01/22 12:11:19;;;;;;;159.02;45.05;;;18.40;51.90;;;;;;5117710;28;20419;-61
2021/01/22 12:13:45;;;;;;;156.23;46.65;;;18.50;51.40;;;;;;5118116;28;20036;-60
2021/01/22 12:16:10;;;;;;;129.43;41.97;;;18.40;52.50;;;;;;5118185;28;20019;-62
2021/01/22 12:18:36;;;;;;;110.88;41.75;;;18.30;53.90;;;;;;5117706;28;20030;-60
2021/01/22 12:21:05;;;;;;;95.97;35.60;;;18.30;53.90;;;;;;5117811;28;20462;-60
2021/01/22 12:23:31;;;;;;;96.38;36.38;;;18.40;53.70;;;;;;5117764;28;20031;-61
2021/01/22 12:25:56;;;;;;;82.82;33.10;;;18.40;53.70;;;;;;5117776;28;20034;-60
2021/01/22 12:28:22;;;;;;;70.47;34.13;;;18.50;53.80;;;;;;5117838;28;20020;-61